Time;durP1;ratioP1;P1;durP2;ratioP2;P2;SDS_P1;SDS_P2;PMS_P1;PMS_P2;Temp;Humidity;BMP_temperature;BMP_pressure;BME280_temperature;BME280_humidity;BME280_pressure;Samples;Min_cycle;Max_cycle;Signal;HPM_P1;HPM_P2
2023/09/30 00:00:36;;;;;;;10.25;5.63;;;22.00;66.80;;;;;;5016595;28;20030;-65
2023/09/30 00:03:03;;;;;;;10.20;6.32;;;22.00;66.80;;;;;;5019295;28;20160;-68
2023/09/30 00:05:28;;;;;;;9.57;5.78;;;22.00;66.70;;;;;;5024982;28;20514;-68
2023/09/30 00:07:54;;;;;;;10.93;6.13;;;22.10;66.80;;;;;;5023883;28;20112;-68
2023/09/30 00:10:19;;;;;;;14.05;6.68;;;22.00;66.70;;;;;;5019012;28;20120;-68
2023/09/30 00:12:45;;;;;;;13.38;7.68;;;22.00;66.80;;;;;;5024802;28;20041;-66
2023/09/30 00:15:11;;;;;;;10.77;5.85;;;22.00;66.80;;;;;;5011422;28;20195;-69
2023/09/30 00:17:36;;;;;;;10.00;5.85;;;22.00;66.80;;;;;;5022476;28;20037;-68
2023/09/30 00:20:04;;;;;;;13.55;6.00;;;22.10;66.80;;;;;;5016920;28;20131;-68
2023/09/30 00:22:29;;;;;;;13.25;6.90;;;22.00;66.70;;;;;;5016936;28;20534;-68
2023/09/30 00:24:55;;;;;;;11.40;5.90;;;22.00;66.90;;;;;;5014696;28;20042;-68
2023/09/30 00:27:21;;;;;;;9.93;5.05;;;22.00;66.90;;;;;;4999591;28;20551;-68
2023/09/30 00:29:46;;;;;;;9.05;5.13;;;22.00;66.80;;;;;;4995386;28;20048;-68
2023/09/30 00:32:12;;;;;;;8.20;4.97;;;22.00;66.80;;;;;;5016718;28;20031;-69
2023/09/30 00:34:38;;;;;;;7.40;4.55;;;22.00;66.80;;;;;;5014176;28;20030;-68
2023/09/30 00:37:03;;;;;;;10.70;5.93;;;22.00;66.80;;;;;;5019912;28;20045;-68
2023/09/30 00:39:32;;;;;;;7.30;4.07;;;22.00;66.80;;;;;;5022820;28;20050;-69
2023/09/30 00:42:01;;;;;;;8.25;5.13;;;22.00;66.80;;;;;;5018895;28;20718;-68
2023/09/30 00:44:26;;;;;;;7.03;4.60;;;22.00;66.70;;;;;;5019273;28;20061;-69
2023/09/30 00:46:55;;;;;;;8.45;5.10;;;22.00;66.70;;;;;;5000013;28;20057;-68
2023/09/30 00:49:21;;;;;;;10.20;4.97;;;22.00;66.70;;;;;;5017419;28;20479;-70
2023/09/30 00:51:47;;;;;;;8.02;4.50;;;22.00;66.70;;;;;;5016521;28;20033;-71
2023/09/30 00:54:13;;;;;;;9.07;4.55;;;22.00;66.60;;;;;;5018898;28;20150;-70
2023/09/30 00:56:45;;;;;;;8.52;4.80;;;22.00;66.60;;;;;;5016662;28;20034;-71
2023/09/30 00:59:12;;;;;;;9.80;5.20;;;22.00;66.60;;;;;;5017939;28;20373;-70
2023/09/30 01:01:38;;;;;;;7.93;4.38;;;22.00;66.60;;;;;;5017120;28;20463;-70
2023/09/30 01:04:04;;;;;;;6.05;3.75;;;22.00;66.60;;;;;;5005479;28;20152;-70
2023/09/30 01:06:30;;;;;;;6.45;4.22;;;22.00;66.60;;;;;;5015395;28;20515;-70
2023/09/30 01:08:55;;;;;;;8.38;3.83;;;22.00;66.60;;;;;;5019283;28;20041;-68
2023/09/30 01:11:21;;;;;;;6.93;4.18;;;22.00;66.50;;;;;;5019077;28;20059;-68
2023/09/30 01:13:47;;;;;;;6.00;3.72;;;22.00;66.60;;;;;;4998669;28;20098;-70
2023/09/30 01:16:13;;;;;;;5.32;3.17;;;22.00;66.50;;;;;;5019285;28;20449;-70
2023/09/30 01:18:41;;;;;;;6.78;3.72;;;22.00;66.50;;;;;;5020095;28;20053;-70
2023/09/30 01:21:07;;;;;;;7.65;3.28;;;22.00;66.50;;;;;;5016102;28;20037;-70
2023/09/30 01:23:33;;;;;;;6.57;3.47;;;22.00;66.50;;;;;;5016434;28;20037;-70
2023/09/30 01:26:03;;;;;;;5.60;3.25;;;22.00;66.50;;;;;;5018813;28;20064;-70
2023/09/30 01:28:30;;;;;;;6.72;3.72;;;22.00;66.50;;;;;;4999406;28;20061;-70
2023/09/30 01:30:56;;;;;;;5.93;3.22;;;21.90;66.50;;;;;;5016041;28;20088;-68
2023/09/30 01:33:23;;;;;;;5.35;2.90;;;21.90;67.10;;;;;;5018584;28;20030;-69
2023/09/30 01:35:48;;;;;;;6.28;3.40;;;22.00;66.50;;;;;;5024722;28;20117;-69
2023/09/30 01:38:14;;;;;;;5.95;2.88;;;22.00;66.60;;;;;;5021177;28;20113;-72
2023/09/30 01:40:39;;;;;;;5.63;3.00;;;21.90;66.50;;;;;;4999620;28;20239;-71
2023/09/30 01:43:05;;;;;;;6.75;3.00;;;22.00;66.60;;;;;;5020710;28;20037;-71
2023/09/30 01:45:31;;;;;;;4.93;2.40;;;21.90;66.60;;;;;;5020400;28;20076;-71
2023/09/30 01:47:56;;;;;;;7.20;3.40;;;22.00;67.20;;;;;;5019183;28;20053;-72
2023/09/30 01:50:22;;;;;;;5.40;2.75;;;21.90;66.50;;;;;;5003151;28;20051;-71
2023/09/30 01:52:47;;;;;;;6.68;2.90;;;22.00;66.50;;;;;;5022605;28;20121;-72
2023/09/30 01:55:13;;;;;;;4.90;2.35;;;21.90;66.50;;;;;;5021066;28;20026;-71
2023/09/30 01:57:38;;;;;;;4.40;2.33;;;21.90;66.50;;;;;;5024236;28;20044;-72
2023/09/30 02:00:05;;;;;;;8.30;3.78;;;21.90;66.50;;;;;;5027766;28;20558;-71
2023/09/30 02:02:31;;;;;;;5.22;2.83;;;21.90;66.50;;;;;;5021616;28;20050;-70
2023/09/30 02:04:57;;;;;;;4.10;2.20;;;22.00;66.60;;;;;;5024027;28;20052;-71
2023/09/30 02:07:22;;;;;;;6.57;2.70;;;21.90;66.50;;;;;;5022344;28;20491;-72
2023/09/30 02:09:49;;;;;;;3.80;2.15;;;21.90;66.50;;;;;;5007678;28;20044;-71
2023/09/30 02:12:14;;;;;;;5.40;2.58;;;21.90;66.50;;;;;;5022524;28;20030;-72
2023/09/30 02:14:40;;;;;;;3.60;1.88;;;21.90;66.50;;;;;;5025569;28;20036;-69
2023/09/30 02:17:05;;;;;;;5.68;2.45;;;21.90;66.40;;;;;;5004894;28;20059;-71
2023/09/30 02:19:33;;;;;;;4.55;2.08;;;21.90;66.30;;;;;;5024760;28;20037;-72
2023/09/30 02:21:59;;;;;;;3.55;1.70;;;21.90;66.30;;;;;;5022389;28;20130;-71
2023/09/30 02:24:25;;;;;;;4.28;2.30;;;21.90;66.30;;;;;;5030187;28;20296;-71
2023/09/30 02:26:51;;;;;;;3.80;2.00;;;22.00;66.30;;;;;;5019393;28;20160;-71
2023/09/30 02:29:16;;;;;;;4.30;1.83;;;21.90;66.20;;;;;;5003840;28;20033;-69
2023/09/30 02:31:42;;;;;;;5.13;2.10;;;21.90;66.20;;;;;;5025910;28;20117;-69
2023/09/30 02:34:08;;;;;;;3.17;1.90;;;21.90;66.10;;;;;;5023438;28;20510;-71
2023/09/30 02:36:37;;;;;;;4.03;1.95;;;21.90;66.10;;;;;;5022675;28;20358;-71
2023/09/30 02:39:03;;;;;;;3.70;1.80;;;21.90;66.00;;;;;;5021312;28;20033;-71
2023/09/30 02:41:29;;;;;;;3.70;1.83;;;21.90;66.10;;;;;;5021374;28;20396;-71
2023/09/30 02:43:54;;;;;;;5.07;1.98;;;21.90;66.00;;;;;;5004279;28;20021;-71
2023/09/30 02:46:20;;;;;;;4.38;1.52;;;21.90;66.00;;;;;;5019846;28;20040;-70
2023/09/30 02:48:45;;;;;;;5.65;2.10;;;21.90;66.00;;;;;;5013227;28;20129;-71
2023/09/30 02:51:11;;;;;;;3.65;1.80;;;21.90;66.00;;;;;;5021037;28;20075;-70
2023/09/30 02:53:37;;;;;;;4.60;2.42;;;21.90;66.00;;;;;;5002906;28;20034;-72
2023/09/30 02:56:04;;;;;;;4.63;2.20;;;21.90;66.00;;;;;;5020007;28;20034;-70
2023/09/30 02:58:30;;;;;;;4.00;1.83;;;21.90;65.90;;;;;;5004168;28;20037;-71
2023/09/30 03:00:55;;;;;;;5.15;2.15;;;21.90;65.90;;;;;;5018730;28;20037;-71
2023/09/30 03:03:21;;;;;;;3.97;1.98;;;21.90;65.90;;;;;;5023094;28;20042;-71
2023/09/30 03:05:48;;;;;;;3.35;2.10;;;21.90;65.90;;;;;;5001902;28;20476;-68
2023/09/30 03:08:15;;;;;;;3.78;1.70;;;21.90;65.90;;;;;;5021808;28;20370;-69
2023/09/30 03:10:41;;;;;;;3.72;1.75;;;21.90;65.90;;;;;;5000990;28;20041;-71
2023/09/30 03:13:08;;;;;;;4.32;1.92;;;21.90;65.90;;;;;;5018590;28;20037;-71
2023/09/30 03:15:38;;;;;;;3.53;1.88;;;21.90;65.90;;;;;;5023787;28;20022;-68
2023/09/30 03:18:04;;;;;;;4.63;2.05;;;21.90;66.00;;;;;;5016238;28;20091;-70
2023/09/30 03:20:30;;;;;;;4.38;2.00;;;21.90;66.00;;;;;;5017210;28;20026;-72
2023/09/30 03:22:56;;;;;;;3.90;1.63;;;21.90;66.00;;;;;;5022876;28;20373;-69
2023/09/30 03:25:22;;;;;;;3.55;1.65;;;21.90;66.00;;;;;;5019622;28;20025;-71
2023/09/30 03:27:48;;;;;;;2.85;1.50;;;21.90;65.90;;;;;;4996049;28;20037;-72
2023/09/30 03:30:15;;;;;;;3.47;1.60;;;21.90;65.90;;;;;;5019903;28;20091;-69
2023/09/30 03:32:44;;;;;;;3.55;1.80;;;21.90;65.90;;;;;;5020633;28;20038;-69
2023/09/30 03:35:14;;;;;;;6.45;1.75;;;21.90;65.90;;;;;;5022015;28;20435;-72
2023/09/30 03:37:41;;;;;;;4.20;2.10;;;21.90;65.80;;;;;;5003532;28;20044;-72
2023/09/30 03:40:14;;;;;;;2.40;1.52;;;21.90;65.80;;;;;;5002064;28;20034;-72
2023/09/30 03:42:42;;;;;;;2.55;1.52;;;21.80;65.80;;;;;;5021758;28;20532;-70
2023/09/30 03:45:08;;;;;;;3.50;1.65;;;21.80;65.70;;;;;;5008128;28;20375;-71
2023/09/30 03:47:36;;;;;;;2.75;1.48;;;21.90;65.80;;;;;;5002065;28;20029;-71
2023/09/30 03:50:03;;;;;;;3.42;1.83;;;21.80;65.80;;;;;;5004439;28;20045;-72
2023/09/30 03:52:29;;;;;;;3.80;1.58;;;21.80;65.70;;;;;;5020172;28;20034;-68
2023/09/30 03:54:54;;;;;;;2.40;1.50;;;21.90;66.40;;;;;;5016345;28;20049;-69
2023/09/30 03:57:20;;;;;;;6.13;1.75;;;21.80;65.70;;;;;;5016991;28;20037;-70
2023/09/30 03:59:46;;;;;;;3.33;2.00;;;21.90;65.80;;;;;;5019833;28;20033;-69
2023/09/30 04:02:12;;;;;;;4.88;1.77;;;21.80;65.80;;;;;;5021408;28;20049;-71
2023/09/30 04:04:38;;;;;;;2.50;1.25;;;21.80;65.70;;;;;;5017687;28;20021;-70
2023/09/30 04:07:10;;;;;;;4.03;1.60;;;21.80;65.80;;;;;;5017024;28;20458;-71
2023/09/30 04:09:36;;;;;;;3.75;1.90;;;21.80;65.80;;;;;;5019093;28;20135;-72
2023/09/30 04:12:01;;;;;;;2.30;1.52;;;21.80;65.80;;;;;;5019219;28;20076;-71
2023/09/30 04:14:27;;;;;;;3.50;1.75;;;21.80;65.90;;;;;;5015821;28;20102;-71
2023/09/30 04:16:54;;;;;;;3.35;2.03;;;21.80;65.90;;;;;;5018764;28;20036;-70
2023/09/30 04:19:20;;;;;;;3.15;1.88;;;21.80;65.80;;;;;;5021838;28;20578;-68
2023/09/30 04:21:45;;;;;;;3.63;1.70;;;21.80;65.80;;;;;;5018841;28;20038;-72
2023/09/30 04:24:11;;;;;;;4.68;1.85;;;21.80;65.80;;;;;;5004554;28;20107;-72
2023/09/30 04:26:36;;;;;;;4.20;1.70;;;21.80;65.80;;;;;;5022778;28;20036;-69
2023/09/30 04:29:10;;;;;;;4.07;1.88;;;21.80;65.80;;;;;;5002603;28;20148;-71
2023/09/30 04:31:38;;;;;;;3.47;2.25;;;21.80;65.80;;;;;;4999968;28;20507;-69
2023/09/30 04:34:04;;;;;;;2.97;1.65;;;21.80;65.90;;;;;;5022984;28;20041;-70
2023/09/30 04:36:30;;;;;;;4.07;1.88;;;21.80;65.80;;;;;;5020772;28;20034;-71
2023/09/30 04:38:56;;;;;;;3.70;2.05;;;21.80;65.80;;;;;;5016877;28;20030;-68
2023/09/30 04:41:21;;;;;;;3.75;1.67;;;21.80;65.80;;;;;;5017544;28;20033;-69
2023/09/30 04:43:47;;;;;;;3.58;1.98;;;21.80;65.80;;;;;;5020583;28;20412;-70
2023/09/30 04:46:13;;;;;;;2.25;1.88;;;21.80;65.80;;;;;;5018709;28;20107;-71
2023/09/30 04:48:39;;;;;;;3.50;1.90;;;21.80;65.80;;;;;;5018399;28;20482;-71
2023/09/30 04:51:08;;;;;;;4.90;1.92;;;21.80;65.80;;;;;;5020833;28;20117;-71
2023/09/30 04:53:34;;;;;;;4.63;1.83;;;21.80;65.80;;;;;;5021184;28;20037;-71
2023/09/30 04:56:00;;;;;;;5.13;2.13;;;21.80;65.70;;;;;;5020099;28;20026;-71
2023/09/30 04:58:25;;;;;;;3.55;1.77;;;21.80;65.80;;;;;;5001579;28;20034;-71
2023/09/30 05:00:51;;;;;;;2.67;1.92;;;21.80;65.80;;;;;;5002722;28;20041;-71
2023/09/30 05:03:16;;;;;;;3.65;1.80;;;21.80;65.60;;;;;;5023187;28;20042;-72
2023/09/30 05:05:42;;;;;;;4.63;2.25;;;21.80;65.60;;;;;;5019014;28;20029;-70
2023/09/30 05:08:10;;;;;;;4.88;1.95;;;21.80;65.60;;;;;;5017300;28;20093;-71
2023/09/30 05:10:35;;;;;;;4.68;2.22;;;21.80;66.20;;;;;;5019924;28;20607;-72
2023/09/30 05:13:01;;;;;;;3.45;2.05;;;21.80;65.50;;;;;;5021005;28;20072;-70
2023/09/30 05:15:29;;;;;;;5.22;1.67;;;21.80;65.60;;;;;;5027764;28;20041;-70
2023/09/30 05:17:54;;;;;;;5.28;2.20;;;21.80;65.50;;;;;;5002771;28;20030;-70
2023/09/30 05:20:20;;;;;;;3.20;1.92;;;21.70;65.50;;;;;;5009176;28;20033;-71
2023/09/30 05:22:46;;;;;;;7.45;1.88;;;21.80;65.50;;;;;;5017450;28;20411;-71
2023/09/30 05:25:16;;;;;;;4.53;2.00;;;21.80;65.50;;;;;;5020390;28;20029;-70
2023/09/30 05:27:42;;;;;;;5.72;1.95;;;21.70;65.50;;;;;;5019139;28;20440;-70
2023/09/30 05:30:08;;;;;;;8.13;2.17;;;21.80;65.50;;;;;;5024522;28;20041;-69
2023/09/30 05:32:38;;;;;;;3.60;2.05;;;21.80;65.50;;;;;;5020519;28;20104;-69
2023/09/30 05:35:05;;;;;;;5.30;2.20;;;21.80;65.50;;;;;;5025414;28;20247;-71
2023/09/30 05:37:30;;;;;;;3.78;1.92;;;21.70;65.50;;;;;;5023447;28;20092;-71
2023/09/30 05:39:56;;;;;;;7.22;2.75;;;21.80;65.50;;;;;;5025508;28;20494;-69
2023/09/30 05:42:22;;;;;;;4.30;2.20;;;21.70;65.50;;;;;;5021219;28;20038;-69
2023/09/30 05:44:48;;;;;;;5.32;2.25;;;21.70;65.60;;;;;;5023328;28;20491;-71
2023/09/30 05:47:15;;;;;;;5.13;2.28;;;21.80;65.70;;;;;;5023876;28;20029;-71
2023/09/30 05:49:41;;;;;;;7.43;2.88;;;21.70;65.70;;;;;;5023808;28;20096;-70
2023/09/30 05:52:07;;;;;;;6.82;2.08;;;21.70;65.70;;;;;;5004512;28;20029;-70
2023/09/30 05:54:32;;;;;;;5.65;2.15;;;21.70;65.70;;;;;;5000450;28;20056;-70
2023/09/30 05:57:00;;;;;;;6.05;2.22;;;21.80;65.80;;;;;;5021306;28;20064;-70
2023/09/30 05:59:25;;;;;;;7.30;2.22;;;21.70;65.80;;;;;;5020377;28;20046;-70
2023/09/30 06:01:51;;;;;;;4.28;1.85;;;21.70;65.80;;;;;;5025956;28;20120;-70
2023/09/30 06:04:17;;;;;;;5.35;2.25;;;21.80;65.90;;;;;;5024572;28;20033;-70
2023/09/30 06:06:43;;;;;;;4.10;2.38;;;21.80;65.90;;;;;;5006307;28;20083;-68
2023/09/30 06:09:09;;;;;;;5.85;2.17;;;21.80;65.90;;;;;;5004694;28;20045;-69
2023/09/30 06:11:35;;;;;;;5.85;1.95;;;21.70;65.90;;;;;;5023528;28;20041;-69
2023/09/30 06:14:01;;;;;;;5.82;2.15;;;21.80;65.90;;;;;;5022596;28;20100;-72
2023/09/30 06:16:28;;;;;;;4.65;2.70;;;21.70;65.90;;;;;;5022794;28;20382;-71
2023/09/30 06:18:53;;;;;;;5.15;2.17;;;21.70;65.90;;;;;;5007300;28;20504;-71
2023/09/30 06:21:24;;;;;;;4.82;3.00;;;21.70;66.00;;;;;;5020810;28;20026;-71
2023/09/30 06:23:53;;;;;;;6.97;2.40;;;21.70;65.90;;;;;;5020939;28;20469;-72
2023/09/30 06:26:18;;;;;;;5.15;2.00;;;21.70;65.90;;;;;;5005893;28;20025;-71
2023/09/30 06:28:45;;;;;;;4.25;2.40;;;21.70;65.90;;;;;;5020629;28;20459;-71
2023/09/30 06:31:11;;;;;;;5.30;2.33;;;21.70;65.90;;;;;;5023539;28;20452;-72
2023/09/30 06:33:40;;;;;;;5.07;2.13;;;21.70;65.90;;;;;;5023451;28;20029;-68
2023/09/30 06:36:15;;;;;;;6.03;2.90;;;21.70;65.90;;;;;;5007034;28;20424;-71
2023/09/30 06:38:43;;;;;;;6.70;2.28;;;21.70;65.80;;;;;;5027531;28;20293;-69
2023/09/30 06:41:15;;;;;;;7.90;2.83;;;21.70;65.70;;;;;;5033558;28;20021;-72
2023/09/30 06:43:40;;;;;;;6.80;2.60;;;21.70;65.70;;;;;;5032342;28;20041;-70
2023/09/30 06:46:10;;;;;;;4.63;2.40;;;21.70;65.70;;;;;;5030541;28;20029;-72
2023/09/30 06:48:36;;;;;;;6.32;2.45;;;21.70;65.70;;;;;;5015255;28;20041;-69
2023/09/30 06:51:02;;;;;;;6.40;2.53;;;21.70;65.80;;;;;;5044859;28;20052;-70
2023/09/30 06:53:28;;;;;;;4.97;2.22;;;21.70;65.70;;;;;;5046784;28;20088;-73
2023/09/30 06:55:54;;;;;;;5.07;2.17;;;21.70;65.70;;;;;;5031768;28;20025;-72
2023/09/30 06:58:22;;;;;;;10.52;2.72;;;21.70;65.70;;;;;;5020247;28;20022;-72
2023/09/30 07:00:53;;;;;;;10.52;2.33;;;21.70;65.80;;;;;;5023207;28;20041;-72
2023/09/30 07:03:22;;;;;;;3.97;2.40;;;21.70;65.90;;;;;;5030182;28;20029;-71
2023/09/30 07:05:50;;;;;;;8.07;2.83;;;21.70;66.00;;;;;;5030478;28;20185;-70
2023/09/30 07:08:21;;;;;;;7.57;3.17;;;21.70;65.90;;;;;;5031652;28;20029;-76
2023/09/30 07:10:49;;;;;;;7.03;3.97;;;21.70;66.00;;;;;;5027729;28;20034;-72
2023/09/30 07:13:16;;;;;;;7.40;3.65;;;21.70;66.00;;;;;;5023430;28;20037;-68
2023/09/30 07:15:41;;;;;;;8.00;3.63;;;21.70;66.00;;;;;;5026030;28;20035;-71
2023/09/30 07:18:07;;;;;;;9.13;3.10;;;21.70;66.10;;;;;;5024602;28;20041;-68
2023/09/30 07:20:33;;;;;;;6.75;3.33;;;21.70;65.90;;;;;;5025094;28;20032;-70
2023/09/30 07:23:03;;;;;;;10.57;6.35;;;21.70;65.70;;;;;;5009263;28;20602;-69
2023/09/30 07:25:31;;;;;;;12.77;6.80;;;21.70;65.50;;;;;;5023161;28;20022;-67
2023/09/30 07:27:57;;;;;;;12.43;5.57;;;21.70;65.60;;;;;;5024335;28;20036;-69
2023/09/30 07:30:23;;;;;;;10.18;4.80;;;21.70;65.50;;;;;;5023092;28;20431;-70
2023/09/30 07:32:49;;;;;;;9.80;4.68;;;21.70;65.50;;;;;;5024530;28;20116;-68
2023/09/30 07:35:15;;;;;;;10.60;4.05;;;21.70;65.50;;;;;;5023442;28;20277;-73
2023/09/30 07:37:42;;;;;;;11.98;4.60;;;21.70;65.20;;;;;;5002047;28;20046;-72
2023/09/30 07:40:08;;;;;;;8.60;3.85;;;21.70;65.20;;;;;;5000257;28;20535;-67
2023/09/30 07:42:34;;;;;;;6.70;3.55;;;21.70;65.30;;;;;;5003448;28;20037;-69
2023/09/30 07:45:00;;;;;;;13.27;4.30;;;21.70;65.40;;;;;;5021869;28;20028;-71
2023/09/30 07:47:25;;;;;;;8.35;4.20;;;21.70;65.60;;;;;;5002258;28;20755;-71
2023/09/30 07:49:51;;;;;;;9.55;4.03;;;21.70;65.70;;;;;;5002711;28;20037;-70
2023/09/30 07:52:16;;;;;;;9.68;4.00;;;21.70;65.50;;;;;;5003978;28;20036;-73
2023/09/30 07:54:43;;;;;;;6.82;3.45;;;21.70;65.40;;;;;;5020062;28;21141;-72
2023/09/30 07:57:08;;;;;;;14.05;3.63;;;21.70;65.40;;;;;;5022503;28;20026;-73
2023/09/30 07:59:34;;;;;;;8.10;3.65;;;21.70;65.30;;;;;;5022977;28;20044;-71
2023/09/30 08:02:04;;;;;;;6.88;3.75;;;21.70;65.20;;;;;;5021541;28;20033;-70
2023/09/30 08:04:30;;;;;;;6.68;2.85;;;21.70;65.20;;;;;;5018769;28;20092;-72
2023/09/30 08:06:56;;;;;;;7.72;3.35;;;21.70;65.20;;;;;;4999550;28;20030;-71
2023/09/30 08:09:23;;;;;;;9.70;3.45;;;21.70;65.10;;;;;;5017086;28;20049;-72
2023/09/30 08:11:50;;;;;;;10.82;3.40;;;21.60;65.30;;;;;;5001631;28;20046;-72
2023/09/30 08:14:16;;;;;;;10.82;2.80;;;21.60;65.50;;;;;;5020500;28;20527;-71
2023/09/30 08:16:42;;;;;;;8.25;3.30;;;21.60;65.50;;;;;;5001979;28;20030;-73
2023/09/30 08:19:08;;;;;;;7.28;3.00;;;21.60;65.60;;;;;;5022380;28;20073;-73
2023/09/30 08:21:34;;;;;;;6.60;2.60;;;21.60;65.80;;;;;;5004266;28;20465;-72
2023/09/30 08:24:01;;;;;;;8.45;4.32;;;21.60;65.70;;;;;;5000483;28;20037;-72
2023/09/30 08:26:27;;;;;;;7.47;2.60;;;21.60;65.70;;;;;;5005283;28;20025;-72
2023/09/30 08:28:52;;;;;;;7.40;2.78;;;21.60;65.60;;;;;;5001249;28;20044;-72
2023/09/30 08:31:18;;;;;;;9.07;3.13;;;21.50;65.50;;;;;;5020753;28;20025;-72
2023/09/30 08:33:45;;;;;;;10.68;3.03;;;21.50;65.50;;;;;;5001675;28;20056;-71
2023/09/30 08:36:11;;;;;;;9.35;3.42;;;21.50;65.40;;;;;;5020231;28;20072;-72
2023/09/30 08:38:38;;;;;;;7.38;2.90;;;21.50;65.40;;;;;;4999819;28;20037;-72
2023/09/30 08:41:05;;;;;;;6.85;3.03;;;21.50;65.50;;;;;;4998288;28;20030;-72
2023/09/30 08:43:31;;;;;;;6.57;2.75;;;21.50;65.50;;;;;;4998406;28;20094;-72
2023/09/30 08:46:02;;;;;;;6.88;3.05;;;21.50;65.50;;;;;;5011879;28;20022;-72
2023/09/30 08:48:28;;;;;;;9.18;3.45;;;21.50;65.20;;;;;;4990490;28;20372;-72
2023/09/30 08:50:57;;;;;;;6.35;2.30;;;21.50;65.10;;;;;;4999870;28;20244;-72
2023/09/30 08:53:23;;;;;;;10.30;2.88;;;21.50;65.20;;;;;;5018638;28;20520;-72
2023/09/30 08:55:54;;;;;;;9.45;3.63;;;21.50;65.10;;;;;;5024432;28;20124;-72
2023/09/30 08:58:19;;;;;;;8.57;3.33;;;21.50;65.20;;;;;;4974623;28;20029;-71
2023/09/30 09:00:45;;;;;;;6.28;2.45;;;21.50;65.10;;;;;;5003228;28;20619;-72
2023/09/30 09:03:11;;;;;;;9.50;2.55;;;21.40;64.70;;;;;;5002786;28;20037;-70
2023/09/30 09:05:36;;;;;;;11.25;3.00;;;21.40;65.10;;;;;;5020686;28;20041;-72
2023/09/30 09:08:02;;;;;;;7.55;2.97;;;21.40;64.50;;;;;;5003643;28;20106;-72
2023/09/30 09:10:28;;;;;;;8.10;2.65;;;21.50;64.10;;;;;;5019922;28;20040;-71
2023/09/30 09:12:58;;;;;;;11.23;3.00;;;21.50;64.00;;;;;;5007983;28;20088;-71
2023/09/30 09:15:28;;;;;;;8.27;2.70;;;21.50;63.90;;;;;;5004505;28;20056;-72
2023/09/30 09:17:54;;;;;;;8.20;3.45;;;21.50;63.80;;;;;;5023416;28;20065;-73
2023/09/30 09:20:25;;;;;;;5.05;2.10;;;21.50;63.80;;;;;;5022874;28;20029;-72
2023/09/30 09:22:55;;;;;;;10.18;2.90;;;21.50;63.90;;;;;;5025019;28;20551;-73
2023/09/30 09:25:25;;;;;;;10.57;3.10;;;21.50;63.90;;;;;;5029486;28;20043;-72
2023/09/30 09:27:51;;;;;;;6.65;2.50;;;21.40;64.00;;;;;;5020577;28;20368;-69
2023/09/30 09:30:22;;;;;;;8.95;3.33;;;21.40;64.10;;;;;;5021652;28;20097;-71
2023/09/30 09:32:57;;;;;;;8.27;3.22;;;21.40;64.20;;;;;;5004383;28;20058;-70
2023/09/30 09:35:25;;;;;;;7.05;2.50;;;21.40;64.40;;;;;;5003592;28;20037;-70
2023/09/30 09:38:04;;;;;;;7.95;2.60;;;21.40;64.60;;;;;;5006550;28;20468;-72
2023/09/30 09:40:40;;;;;;;6.63;2.55;;;21.40;64.50;;;;;;5020911;28;20057;-73
2023/09/30 09:43:06;;;;;;;7.90;2.28;;;21.40;64.40;;;;;;5016302;28;20056;-71
2023/09/30 09:45:35;;;;;;;7.82;2.55;;;21.40;63.80;;;;;;5003755;28;20037;-72
2023/09/30 09:48:01;;;;;;;8.60;2.60;;;21.40;64.20;;;;;;4996026;28;20460;-72
2023/09/30 09:50:26;;;;;;;11.68;3.08;;;21.40;64.20;;;;;;5020925;28;20037;-73
2023/09/30 09:52:58;;;;;;;8.68;2.67;;;21.40;63.70;;;;;;5023543;28;20080;-71
2023/09/30 09:55:25;;;;;;;6.97;2.45;;;21.40;63.90;;;;;;5019241;28;20040;-73
2023/09/30 09:57:51;;;;;;;6.53;2.03;;;21.40;64.40;;;;;;5003459;28;20535;-72
2023/09/30 10:00:22;;;;;;;7.05;2.45;;;21.40;63.40;;;;;;5016674;28;20112;-72
2023/09/30 10:02:48;;;;;;;9.55;2.60;;;21.40;63.30;;;;;;5022395;28;20045;-72
2023/09/30 10:05:15;;;;;;;6.72;2.10;;;21.40;63.70;;;;;;5020485;28;20599;-71
2023/09/30 10:07:57;;;;;;;6.82;2.33;;;21.40;63.60;;;;;;5022728;28;20030;-72
2023/09/30 10:10:24;;;;;;;8.50;2.60;;;21.40;63.30;;;;;;5000065;28;20099;-72
2023/09/30 10:12:50;;;;;;;7.13;3.15;;;21.40;63.10;;;;;;5023212;28;20506;-71
2023/09/30 10:15:25;;;;;;;4.18;1.73;;;21.40;63.20;;;;;;5008557;28;20121;-72
2023/09/30 10:18:19;;;;;;;7.78;2.63;;;21.40;63.80;;;;;;5019368;28;20038;-73
2023/09/30 10:20:47;;;;;;;6.82;2.30;;;21.40;62.20;;;;;;5003332;28;20305;-73
2023/09/30 10:23:26;;;;;;;6.07;2.22;;;21.40;61.00;;;;;;5016238;28;20038;-71
2023/09/30 10:25:57;;;;;;;8.07;2.55;;;21.30;64.20;;;;;;5019365;28;20044;-70
2023/09/30 10:28:40;;;;;;;7.18;2.20;;;21.40;64.00;;;;;;5020798;28;20421;-71
2023/09/30 10:31:25;;;;;;;6.35;3.08;;;21.40;62.90;;;;;;5019308;28;20049;-71
2023/09/30 10:34:00;;;;;;;6.22;2.50;;;21.40;63.40;;;;;;5020464;28;20041;-72
2023/09/30 10:36:30;;;;;;;5.82;2.10;;;21.40;63.50;;;;;;5017220;28;20025;-72
2023/09/30 10:38:56;;;;;;;10.25;2.50;;;21.40;63.40;;;;;;5024284;28;20025;-73
2023/09/30 10:41:40;;;;;;;6.38;1.73;;;21.40;63.20;;;;;;5017668;28;20056;-75
2023/09/30 10:44:27;;;;;;;8.27;2.85;;;21.40;60.50;;;;;;5008260;28;20099;-72
2023/09/30 10:47:02;;;;;;;3.72;1.88;;;21.30;63.30;;;;;;5019545;28;20393;-73
2023/09/30 10:49:28;;;;;;;7.45;2.88;;;21.40;63.30;;;;;;5004496;28;20056;-73
2023/09/30 10:51:56;;;;;;;6.97;2.65;;;21.30;63.00;;;;;;5019426;28;20445;-69
2023/09/30 10:54:25;;;;;;;7.85;2.28;;;21.30;62.70;;;;;;5019774;28;20483;-72
2023/09/30 10:56:52;;;;;;;5.63;2.05;;;21.40;63.00;;;;;;5017134;28;20034;-73
2023/09/30 10:59:20;;;;;;;5.53;2.03;;;21.30;62.80;;;;;;5021659;28;20033;-72
2023/09/30 11:01:46;;;;;;;5.38;2.15;;;21.40;62.70;;;;;;5020796;28;20117;-72
2023/09/30 11:04:11;;;;;;;8.02;2.90;;;21.30;62.20;;;;;;5016762;28;20488;-72
2023/09/30 11:06:41;;;;;;;7.82;2.20;;;21.30;62.10;;;;;;5019300;28;20036;-72
2023/09/30 11:09:12;;;;;;;6.72;2.42;;;21.30;61.70;;;;;;5021150;28;20033;-72
2023/09/30 11:11:42;;;;;;;7.18;2.58;;;21.40;61.90;;;;;;5015954;28;20026;-71
2023/09/30 11:14:37;;;;;;;7.40;2.40;;;21.40;61.60;;;;;;5023036;28;20033;-70
2023/09/30 11:17:04;;;;;;;7.35;2.08;;;21.40;61.60;;;;;;4997056;28;20032;-71
2023/09/30 11:19:48;;;;;;;3.78;1.80;;;21.40;61.80;;;;;;5021367;28;20033;-69
2023/09/30 11:22:15;;;;;;;4.22;1.85;;;21.40;62.00;;;;;;4997575;28;20036;-72
2023/09/30 11:24:40;;;;;;;5.57;2.45;;;21.40;61.60;;;;;;5017560;28;20079;-71
2023/09/30 11:27:06;;;;;;;6.38;1.92;;;21.40;61.50;;;;;;5001538;28;20025;-70
2023/09/30 11:29:32;;;;;;;5.40;2.85;;;21.40;61.80;;;;;;5019749;28;20270;-71
2023/09/30 11:31:57;;;;;;;6.85;2.42;;;21.40;61.60;;;;;;5003452;28;20108;-71
2023/09/30 11:34:37;;;;;;;6.63;2.22;;;21.40;61.50;;;;;;5017376;28;20047;-70
2023/09/30 11:37:03;;;;;;;6.07;1.85;;;21.40;62.00;;;;;;5017927;28;20077;-71
2023/09/30 11:39:29;;;;;;;7.18;1.60;;;21.30;62.10;;;;;;5018353;28;20031;-69
2023/09/30 11:41:57;;;;;;;6.38;2.42;;;21.30;61.80;;;;;;5022383;28;20033;-70
2023/09/30 11:44:23;;;;;;;6.80;2.50;;;21.30;62.30;;;;;;5018951;28;20571;-69
2023/09/30 11:46:55;;;;;;;4.70;2.20;;;21.30;62.30;;;;;;5017669;28;20519;-70
2023/09/30 11:49:27;;;;;;;5.30;2.05;;;21.30;62.50;;;;;;5007461;28;20447;-71
2023/09/30 11:51:53;;;;;;;6.18;1.77;;;21.30;62.10;;;;;;5019309;28;20033;-70
2023/09/30 11:54:18;;;;;;;6.25;2.58;;;21.30;62.20;;;;;;5002582;28;20554;-69
2023/09/30 11:56:45;;;;;;;4.50;1.92;;;21.30;62.30;;;;;;5002344;28;20042;-69
2023/09/30 11:59:10;;;;;;;4.15;1.70;;;21.30;62.40;;;;;;5019235;28;20036;-69
2023/09/30 12:01:37;;;;;;;5.30;1.83;;;21.30;61.90;;;;;;5019076;28;20052;-70
2023/09/30 12:04:03;;;;;;;9.25;2.22;;;21.30;60.80;;;;;;5018637;28;20096;-70
2023/09/30 12:06:29;;;;;;;5.25;2.35;;;21.30;60.40;;;;;;5017770;28;20562;-70
2023/09/30 12:08:54;;;;;;;6.30;1.75;;;21.30;60.60;;;;;;5018054;28;20036;-70
2023/09/30 12:11:20;;;;;;;4.47;1.85;;;21.30;60.70;;;;;;5025152;28;20105;-69
2023/09/30 12:13:48;;;;;;;5.38;2.03;;;21.30;61.40;;;;;;5021772;28;20021;-70
2023/09/30 12:16:15;;;;;;;5.00;1.83;;;21.30;61.20;;;;;;5019948;28;20026;-69
2023/09/30 12:18:41;;;;;;;6.88;1.70;;;21.30;60.50;;;;;;4988020;28;20029;-69
2023/09/30 12:21:10;;;;;;;8.02;2.05;;;21.30;59.90;;;;;;5016079;28;20037;-69
2023/09/30 12:23:36;;;;;;;5.78;2.22;;;21.30;60.10;;;;;;5017719;28;20702;-69
2023/09/30 12:26:04;;;;;;;5.72;1.83;;;21.30;59.90;;;;;;5003158;28;20177;-70
2023/09/30 12:28:32;;;;;;;8.98;2.60;;;21.30;58.90;;;;;;5020114;28;20108;-69
2023/09/30 12:30:58;;;;;;;5.78;2.30;;;21.30;60.00;;;;;;5019400;28;20059;-69
2023/09/30 12:33:24;;;;;;;6.22;2.00;;;21.30;59.70;;;;;;5021104;28;20033;-69
2023/09/30 12:35:49;;;;;;;11.45;2.42;;;21.30;59.00;;;;;;5020709;28;20178;-70
2023/09/30 12:38:16;;;;;;;7.03;2.15;;;21.30;59.70;;;;;;5016077;28;20036;-70
2023/09/30 12:40:43;;;;;;;6.30;2.38;;;21.30;58.90;;;;;;5018157;28;20034;-70
2023/09/30 12:43:10;;;;;;;8.60;2.00;;;21.30;58.90;;;;;;5009802;28;20033;-71
2023/09/30 12:45:35;;;;;;;5.90;1.98;;;21.30;59.10;;;;;;5021984;28;20055;-71